sensor_id;sensor_type;location;lat;lon;timestamp;temperature;humidity
19805;DHT22;10062;51.052;13.756;2023-09-08T00:01:07;19.10;1.00
19805;DHT22;10062;51.052;13.756;2023-09-08T00:08:43;19.00;99.90
19805;DHT22;10062;51.052;13.756;2023-09-08T00:16:22;18.90;1.00
19805;DHT22;10062;51.052;13.756;2023-09-08T00:23:58;18.90;1.00
19805;DHT22;10062;51.052;13.756;2023-09-08T00:26:33;18.90;1.00
19805;DHT22;10062;51.052;13.756;2023-09-08T00:31:38;18.90;1.00
19805;DHT22;10062;51.052;13.756;2023-09-08T00:44:18;18.60;1.00
19805;DHT22;10062;51.052;13.756;2023-09-08T00:46:52;19.90;14.70
19805;DHT22;10062;51.052;13.756;2023-09-08T00:49:24;18.50;18.70
19805;DHT22;10062;51.052;13.756;2023-09-08T00:57:02;18.40;99.90
19805;DHT22;10062;51.052;13.756;2023-09-08T01:02:08;18.30;99.90
19805;DHT22;10062;51.052;13.756;2023-09-08T01:04:40;18.70;99.90
19805;DHT22;10062;51.052;13.756;2023-09-08T01:07:13;18.20;1.00
19805;DHT22;10062;51.052;13.756;2023-09-08T01:09:46;19.20;1.00
19805;DHT22;10062;51.052;13.756;2023-09-08T01:12:19;18.10;1.00
19805;DHT22;10062;51.052;13.756;2023-09-08T01:14:50;19.00;1.00
19805;DHT22;10062;51.052;13.756;2023-09-08T01:17:24;18.00;1.00
19805;DHT22;10062;51.052;13.756;2023-09-08T01:20:01;18.00;1.00
19805;DHT22;10062;51.052;13.756;2023-09-08T01:22:45;18.00;1.00
19805;DHT22;10062;51.052;13.756;2023-09-08T01:25:23;17.90;1.00
19805;DHT22;10062;51.052;13.756;2023-09-08T01:27:58;17.90;1.00
19805;DHT22;10062;51.052;13.756;2023-09-08T01:30:32;17.90;1.00
19805;DHT22;10062;51.052;13.756;2023-09-08T01:33:05;17.80;1.00
19805;DHT22;10062;51.052;13.756;2023-09-08T01:38:09;17.80;1.00
19805;DHT22;10062;51.052;13.756;2023-09-08T01:43:15;17.80;1.00
19805;DHT22;10062;51.052;13.756;2023-09-08T01:45:46;17.80;1.00
19805;DHT22;10062;51.052;13.756;2023-09-08T01:48:21;17.80;1.00
19805;DHT22;10062;51.052;13.756;2023-09-08T01:53:25;17.70;1.00
19805;DHT22;10062;51.052;13.756;2023-09-08T01:55:58;17.70;1.00
19805;DHT22;10062;51.052;13.756;2023-09-08T01:58:30;17.70;1.00
19805;DHT22;10062;51.052;13.756;2023-09-08T02:01:04;17.70;1.00
19805;DHT22;10062;51.052;13.756;2023-09-08T02:03:36;17.60;1.00
19805;DHT22;10062;51.052;13.756;2023-09-08T02:06:08;17.60;1.00
19805;DHT22;10062;51.052;13.756;2023-09-08T02:08:39;17.60;1.00
19805;DHT22;10062;51.052;13.756;2023-09-08T02:11:13;18.10;1.00
19805;DHT22;10062;51.052;13.756;2023-09-08T02:13:45;17.50;1.00
19805;DHT22;10062;51.052;13.756;2023-09-08T02:16:18;18.00;1.00
19805;DHT22;10062;51.052;13.756;2023-09-08T02:21:22;17.40;1.00
19805;DHT22;10062;51.052;13.756;2023-09-08T02:23:54;17.30;1.00
19805;DHT22;10062;51.052;13.756;2023-09-08T02:26:27;18.60;1.00
19805;DHT22;10062;51.052;13.756;2023-09-08T02:29:03;17.40;1.00
19805;DHT22;10062;51.052;13.756;2023-09-08T02:36:42;17.20;1.00
19805;DHT22;10062;51.052;13.756;2023-09-08T02:41:48;17.20;1.00
19805;DHT22;10062;51.052;13.756;2023-09-08T02:46:53;17.10;1.00
19805;DHT22;10062;51.052;13.756;2023-09-08T02:49:25;17.10;1.00
19805;DHT22;10062;51.052;13.756;2023-09-08T02:51:57;17.00;1.00
19805;DHT22;10062;51.052;13.756;2023-09-08T02:54:29;16.90;1.00
19805;DHT22;10062;51.052;13.756;2023-09-08T02:57:03;16.90;1.00
19805;DHT22;10062;51.052;13.756;2023-09-08T02:59:35;16.90;1.00
19805;DHT22;10062;51.052;13.756;2023-09-08T03:02:07;16.90;1.00
19805;DHT22;10062;51.052;13.756;2023-09-08T03:04:39;16.90;1.00
19805;DHT22;10062;51.052;13.756;2023-09-08T03:07:11;16.80;1.00
19805;DHT22;10062;51.052;13.756;2023-09-08T03:12:17;16.80;1.00
19805;DHT22;10062;51.052;13.756;2023-09-08T03:19:53;16.60;1.00
19805;DHT22;10062;51.052;13.756;2023-09-08T03:27:31;16.50;1.00
19805;DHT22;10062;51.052;13.756;2023-09-08T03:30:03;16.50;1.00
19805;DHT22;10062;51.052;13.756;2023-09-08T03:32:36;16.60;1.00
19805;DHT22;10062;51.052;13.756;2023-09-08T03:35:08;16.50;1.00
19805;DHT22;10062;51.052;13.756;2023-09-08T03:40:13;16.50;1.00
19805;DHT22;10062;51.052;13.756;2023-09-08T03:42:46;16.50;1.00
19805;DHT22;10062;51.052;13.756;2023-09-08T03:45:18;16.50;1.00
19805;DHT22;10062;51.052;13.756;2023-09-08T03:47:49;16.40;1.00
19805;DHT22;10062;51.052;13.756;2023-09-08T03:50:22;16.50;1.00
19805;DHT22;10062;51.052;13.756;2023-09-08T03:52:54;16.40;1.00
19805;DHT22;10062;51.052;13.756;2023-09-08T03:57:59;16.30;1.00
19805;DHT22;10062;51.052;13.756;2023-09-08T04:00:31;16.20;1.00
19805;DHT22;10062;51.052;13.756;2023-09-08T04:03:02;16.30;1.00
19805;DHT22;10062;51.052;13.756;2023-09-08T04:05:34;16.30;1.00
19805;DHT22;10062;51.052;13.756;2023-09-08T04:08:06;16.30;1.00
19805;DHT22;10062;51.052;13.756;2023-09-08T04:10:38;16.20;1.00
19805;DHT22;10062;51.052;13.756;2023-09-08T04:13:11;16.20;1.00
19805;DHT22;10062;51.052;13.756;2023-09-08T04:15:43;16.20;1.00
19805;DHT22;10062;51.052;13.756;2023-09-08T04:18:15;16.10;1.00
19805;DHT22;10062;51.052;13.756;2023-09-08T04:20:47;16.10;1.00
19805;DHT22;10062;51.052;13.756;2023-09-08T04:23:19;16.00;1.00
19805;DHT22;10062;51.052;13.756;2023-09-08T04:25:51;16.00;1.00
19805;DHT22;10062;51.052;13.756;2023-09-08T04:28:24;16.10;1.00
19805;DHT22;10062;51.052;13.756;2023-09-08T04:30:56;16.00;1.00
19805;DHT22;10062;51.052;13.756;2023-09-08T04:43:38;15.90;1.00
19805;DHT22;10062;51.052;13.756;2023-09-08T04:46:10;16.00;1.00
19805;DHT22;10062;51.052;13.756;2023-09-08T04:48:42;15.90;1.00
19805;DHT22;10062;51.052;13.756;2023-09-08T04:51:14;15.90;1.00
19805;DHT22;10062;51.052;13.756;2023-09-08T04:53:46;15.90;1.00
19805;DHT22;10062;51.052;13.756;2023-09-08T04:58:51;15.80;1.00
19805;DHT22;10062;51.052;13.756;2023-09-08T05:01:23;16.00;1.00
19805;DHT22;10062;51.052;13.756;2023-09-08T05:11:33;16.10;1.00
19805;DHT22;10062;51.052;13.756;2023-09-08T05:14:06;16.00;1.00
19805;DHT22;10062;51.052;13.756;2023-09-08T05:16:39;16.20;1.00
19805;DHT22;10062;51.052;13.756;2023-09-08T05:21:50;16.10;1.00
19805;DHT22;10062;51.052;13.756;2023-09-08T05:24:22;16.20;1.00
19805;DHT22;10062;51.052;13.756;2023-09-08T05:29:30;16.30;1.00
19805;DHT22;10062;51.052;13.756;2023-09-08T05:37:07;16.40;1.00
19805;DHT22;10062;51.052;13.756;2023-09-08T06:00:04;16.70;1.00
19805;DHT22;10062;51.052;13.756;2023-09-08T06:15:29;17.20;1.00
19805;DHT22;10062;51.052;13.756;2023-09-08T06:25:38;18.10;99.90
19805;DHT22;10062;51.052;13.756;2023-09-08T06:30:44;18.60;1.00
19805;DHT22;10062;51.052;13.756;2023-09-08T06:35:49;19.20;1.00
19805;DHT22;10062;51.052;13.756;2023-09-08T06:43:25;20.10;1.00
19805;DHT22;10062;51.052;13.756;2023-09-08T06:46:10;20.60;1.00
19805;DHT22;10062;51.052;13.756;2023-09-08T06:53:54;21.60;1.00
19805;DHT22;10062;51.052;13.756;2023-09-08T07:01:35;22.90;99.90
19805;DHT22;10062;51.052;13.756;2023-09-08T07:04:07;23.20;1.00
19805;DHT22;10062;51.052;13.756;2023-09-08T07:27:03;26.20;99.90
19805;DHT22;10062;51.052;13.756;2023-09-08T07:29:35;26.00;99.90
19805;DHT22;10062;51.052;13.756;2023-09-08T07:32:08;25.90;99.90
19805;DHT22;10062;51.052;13.756;2023-09-08T07:34:41;25.80;99.90
19805;DHT22;10062;51.052;13.756;2023-09-08T07:37:13;26.30;99.90
19805;DHT22;10062;51.052;13.756;2023-09-08T07:39:45;26.80;99.90
19805;DHT22;10062;51.052;13.756;2023-09-08T07:42:17;27.00;99.90
19805;DHT22;10062;51.052;13.756;2023-09-08T07:47:23;28.30;93.60
19805;DHT22;10062;51.052;13.756;2023-09-08T07:50:15;28.80;3.00
19805;DHT22;10062;51.052;13.756;2023-09-08T07:52:48;29.70;1.00
19805;DHT22;10062;51.052;13.756;2023-09-08T07:55:20;29.80;1.00
19805;DHT22;10062;51.052;13.756;2023-09-08T07:57:53;30.40;1.00
19805;DHT22;10062;51.052;13.756;2023-09-08T08:03:00;29.50;1.00
19805;DHT22;10062;51.052;13.756;2023-09-08T08:05:32;28.70;1.00
19805;DHT22;10062;51.052;13.756;2023-09-08T08:08:03;28.40;1.00
19805;DHT22;10062;51.052;13.756;2023-09-08T08:15:40;27.30;1.00
19805;DHT22;10062;51.052;13.756;2023-09-08T08:33:28;28.00;1.00
19805;DHT22;10062;51.052;13.756;2023-09-08T08:38:34;29.10;1.00
19805;DHT22;10062;51.052;13.756;2023-09-08T08:41:05;29.70;1.00
19805;DHT22;10062;51.052;13.756;2023-09-08T08:43:37;30.60;1.00
19805;DHT22;10062;51.052;13.756;2023-09-08T08:46:09;31.80;1.00
19805;DHT22;10062;51.052;13.756;2023-09-08T08:48:43;33.40;1.00
19805;DHT22;10062;51.052;13.756;2023-09-08T08:51:17;34.40;1.00
19805;DHT22;10062;51.052;13.756;2023-09-08T08:56:22;37.80;1.00
19805;DHT22;10062;51.052;13.756;2023-09-08T08:58:54;39.20;1.00
19805;DHT22;10062;51.052;13.756;2023-09-08T09:01:26;40.70;1.00
19805;DHT22;10062;51.052;13.756;2023-09-08T09:04:01;41.80;1.00
19805;DHT22;10062;51.052;13.756;2023-09-08T09:06:36;42.70;1.00
19805;DHT22;10062;51.052;13.756;2023-09-08T09:09:08;42.80;1.00
19805;DHT22;10062;51.052;13.756;2023-09-08T09:14:13;44.40;1.00
19805;DHT22;10062;51.052;13.756;2023-09-08T09:16:45;44.30;1.00
19805;DHT22;10062;51.052;13.756;2023-09-08T09:19:21;44.80;1.00
19805;DHT22;10062;51.052;13.756;2023-09-08T09:21:58;45.30;1.00
19805;DHT22;10062;51.052;13.756;2023-09-08T09:24:32;45.70;1.00
19805;DHT22;10062;51.052;13.756;2023-09-08T09:27:04;45.30;1.00
19805;DHT22;10062;51.052;13.756;2023-09-08T09:29:45;47.00;1.00
19805;DHT22;10062;51.052;13.756;2023-09-08T09:32:23;47.20;1.00
19805;DHT22;10062;51.052;13.756;2023-09-08T09:34:57;47.60;1.00
19805;DHT22;10062;51.052;13.756;2023-09-08T09:40:04;48.70;1.00
19805;DHT22;10062;51.052;13.756;2023-09-08T09:42:38;47.50;1.00
19805;DHT22;10062;51.052;13.756;2023-09-08T09:47:43;50.20;1.00
19805;DHT22;10062;51.052;13.756;2023-09-08T09:50:27;50.80;1.00
19805;DHT22;10062;51.052;13.756;2023-09-08T09:53:09;51.30;1.00
19805;DHT22;10062;51.052;13.756;2023-09-08T09:55:43;50.00;1.00
19805;DHT22;10062;51.052;13.756;2023-09-08T10:00:47;49.70;1.00
19805;DHT22;10062;51.052;13.756;2023-09-08T10:03:20;48.30;1.00
19805;DHT22;10062;51.052;13.756;2023-09-08T10:05:54;48.10;1.00
19805;DHT22;10062;51.052;13.756;2023-09-08T10:08:27;49.30;1.00
19805;DHT22;10062;51.052;13.756;2023-09-08T10:10:59;50.10;1.00
19805;DHT22;10062;51.052;13.756;2023-09-08T10:13:38;50.60;1.00
19805;DHT22;10062;51.052;13.756;2023-09-08T10:16:13;50.00;1.00
19805;DHT22;10062;51.052;13.756;2023-09-08T10:18:48;50.80;1.00
19805;DHT22;10062;51.052;13.756;2023-09-08T10:21:23;50.80;1.00
19805;DHT22;10062;51.052;13.756;2023-09-08T10:24:00;49.30;1.00
19805;DHT22;10062;51.052;13.756;2023-09-08T10:26:34;50.20;1.00
19805;DHT22;10062;51.052;13.756;2023-09-08T10:29:07;51.30;1.00
19805;DHT22;10062;51.052;13.756;2023-09-08T10:31:39;51.20;1.00
19805;DHT22;10062;51.052;13.756;2023-09-08T10:34:11;51.00;1.00
19805;DHT22;10062;51.052;13.756;2023-09-08T10:36:45;50.50;1.00
19805;DHT22;10062;51.052;13.756;2023-09-08T10:39:30;50.10;1.00
19805;DHT22;10062;51.052;13.756;2023-09-08T10:42:23;49.10;1.00
19805;DHT22;10062;51.052;13.756;2023-09-08T10:44:58;48.90;1.00
19805;DHT22;10062;51.052;13.756;2023-09-08T10:47:33;49.80;1.00
19805;DHT22;10062;51.052;13.756;2023-09-08T10:50:16;49.40;1.00
19805;DHT22;10062;51.052;13.756;2023-09-08T10:53:04;49.10;1.00
19805;DHT22;10062;51.052;13.756;2023-09-08T10:55:36;46.70;1.00
19805;DHT22;10062;51.052;13.756;2023-09-08T10:58:11;46.80;1.00
19805;DHT22;10062;51.052;13.756;2023-09-08T11:00:51;46.50;1.00
19805;DHT22;10062;51.052;13.756;2023-09-08T11:03:41;46.30;1.00
19805;DHT22;10062;51.052;13.756;2023-09-08T11:06:16;45.90;1.00
19805;DHT22;10062;51.052;13.756;2023-09-08T11:08:50;44.90;1.00
19805;DHT22;10062;51.052;13.756;2023-09-08T11:11:26;45.00;1.00
19805;DHT22;10062;51.052;13.756;2023-09-08T11:13:59;45.60;1.00
19805;DHT22;10062;51.052;13.756;2023-09-08T11:16:30;45.20;1.00
19805;DHT22;10062;51.052;13.756;2023-09-08T11:19:03;44.60;1.00
19805;DHT22;10062;51.052;13.756;2023-09-08T11:21:35;42.60;1.00
19805;DHT22;10062;51.052;13.756;2023-09-08T11:24:09;40.60;1.00
19805;DHT22;10062;51.052;13.756;2023-09-08T11:29:18;37.10;1.00
19805;DHT22;10062;51.052;13.756;2023-09-08T11:31:52;37.10;1.00
19805;DHT22;10062;51.052;13.756;2023-09-08T11:34:23;36.50;1.00
19805;DHT22;10062;51.052;13.756;2023-09-08T11:36:56;36.10;1.00
19805;DHT22;10062;51.052;13.756;2023-09-08T11:39:30;35.80;1.00
19805;DHT22;10062;51.052;13.756;2023-09-08T11:44:34;35.30;1.00
19805;DHT22;10062;51.052;13.756;2023-09-08T11:47:07;34.70;1.00
19805;DHT22;10062;51.052;13.756;2023-09-08T11:49:42;34.80;1.00
19805;DHT22;10062;51.052;13.756;2023-09-08T11:52:15;34.80;1.00
19805;DHT22;10062;51.052;13.756;2023-09-08T11:54:48;34.90;1.00
19805;DHT22;10062;51.052;13.756;2023-09-08T11:57:20;34.70;1.00
19805;DHT22;10062;51.052;13.756;2023-09-08T11:59:52;34.50;1.00
19805;DHT22;10062;51.052;13.756;2023-09-08T12:02:25;34.40;1.00
19805;DHT22;10062;51.052;13.756;2023-09-08T12:04:56;34.60;1.00
19805;DHT22;10062;51.052;13.756;2023-09-08T12:07:28;34.70;1.00
19805;DHT22;10062;51.052;13.756;2023-09-08T12:10:08;34.60;1.00
19805;DHT22;10062;51.052;13.756;2023-09-08T12:12:44;34.60;1.00
19805;DHT22;10062;51.052;13.756;2023-09-08T12:15:33;34.60;1.00
19805;DHT22;10062;51.052;13.756;2023-09-08T12:18:11;34.80;1.00
19805;DHT22;10062;51.052;13.756;2023-09-08T12:20:44;35.30;1.00
19805;DHT22;10062;51.052;13.756;2023-09-08T12:23:18;35.20;1.00
19805;DHT22;10062;51.052;13.756;2023-09-08T12:25:52;35.00;1.00
19805;DHT22;10062;51.052;13.756;2023-09-08T12:28:30;35.20;1.00
19805;DHT22;10062;51.052;13.756;2023-09-08T12:31:02;35.20;1.00
19805;DHT22;10062;51.052;13.756;2023-09-08T12:33:34;35.60;1.00
19805;DHT22;10062;51.052;13.756;2023-09-08T12:36:10;36.80;1.00
19805;DHT22;10062;51.052;13.756;2023-09-08T12:38:49;35.80;1.00
19805;DHT22;10062;51.052;13.756;2023-09-08T12:41:23;36.00;1.00
19805;DHT22;10062;51.052;13.756;2023-09-08T12:57:03;36.30;1.00
19805;DHT22;10062;51.052;13.756;2023-09-08T12:59:39;36.30;1.00
19805;DHT22;10062;51.052;13.756;2023-09-08T13:02:13;36.60;1.00
19805;DHT22;10062;51.052;13.756;2023-09-08T13:04:45;36.30;1.00
19805;DHT22;10062;51.052;13.756;2023-09-08T13:07:25;36.50;1.00
19805;DHT22;10062;51.052;13.756;2023-09-08T13:10:09;34.00;1.00
19805;DHT22;10062;51.052;13.756;2023-09-08T13:13:08;35.70;1.00
19805;DHT22;10062;51.052;13.756;2023-09-08T13:15:46;36.10;1.00
19805;DHT22;10062;51.052;13.756;2023-09-08T13:18:23;36.20;1.00
19805;DHT22;10062;51.052;13.756;2023-09-08T13:26:19;36.60;1.00
19805;DHT22;10062;51.052;13.756;2023-09-08T13:29:05;35.60;1.00
19805;DHT22;10062;51.052;13.756;2023-09-08T13:31:46;34.70;1.00
19805;DHT22;10062;51.052;13.756;2023-09-08T13:34:21;35.80;1.00
19805;DHT22;10062;51.052;13.756;2023-09-08T13:36:59;36.00;1.00
19805;DHT22;10062;51.052;13.756;2023-09-08T13:39:52;36.30;1.00
19805;DHT22;10062;51.052;13.756;2023-09-08T13:42:44;34.20;1.00
19805;DHT22;10062;51.052;13.756;2023-09-08T13:45:25;36.40;1.00
19805;DHT22;10062;51.052;13.756;2023-09-08T13:47:56;38.90;1.00
19805;DHT22;10062;51.052;13.756;2023-09-08T13:50:37;37.10;1.00
19805;DHT22;10062;51.052;13.756;2023-09-08T13:53:22;37.10;1.00
19805;DHT22;10062;51.052;13.756;2023-09-08T14:06:18;36.60;1.00
19805;DHT22;10062;51.052;13.756;2023-09-08T14:11:35;36.40;1.00
19805;DHT22;10062;51.052;13.756;2023-09-08T14:16:53;36.50;1.00
19805;DHT22;10062;51.052;13.756;2023-09-08T14:19:25;36.40;1.00
19805;DHT22;10062;51.052;13.756;2023-09-08T14:21:57;35.90;1.00
19805;DHT22;10062;51.052;13.756;2023-09-08T14:24:29;35.80;1.00
19805;DHT22;10062;51.052;13.756;2023-09-08T14:27:00;35.50;1.00
19805;DHT22;10062;51.052;13.756;2023-09-08T14:29:33;35.10;1.00
19805;DHT22;10062;51.052;13.756;2023-09-08T14:32:07;34.80;1.00
19805;DHT22;10062;51.052;13.756;2023-09-08T14:34:38;34.60;1.00
19805;DHT22;10062;51.052;13.756;2023-09-08T14:37:10;34.20;1.00
19805;DHT22;10062;51.052;13.756;2023-09-08T14:39:48;33.80;1.00
19805;DHT22;10062;51.052;13.756;2023-09-08T14:42:20;33.20;1.00
19805;DHT22;10062;51.052;13.756;2023-09-08T14:44:52;33.10;1.00
19805;DHT22;10062;51.052;13.756;2023-09-08T14:47:25;32.90;1.00
19805;DHT22;10062;51.052;13.756;2023-09-08T14:49:56;32.60;1.00
19805;DHT22;10062;51.052;13.756;2023-09-08T14:52:28;32.20;1.00
19805;DHT22;10062;51.052;13.756;2023-09-08T14:55:00;32.00;1.00
19805;DHT22;10062;51.052;13.756;2023-09-08T14:57:32;31.90;1.00
19805;DHT22;10062;51.052;13.756;2023-09-08T15:00:05;31.50;1.00
19805;DHT22;10062;51.052;13.756;2023-09-08T15:02:40;31.40;1.00
19805;DHT22;10062;51.052;13.756;2023-09-08T15:05:11;31.30;1.00
19805;DHT22;10062;51.052;13.756;2023-09-08T15:07:43;31.10;1.00
19805;DHT22;10062;51.052;13.756;2023-09-08T15:10:15;30.90;1.00
19805;DHT22;10062;51.052;13.756;2023-09-08T15:12:47;30.90;1.00
19805;DHT22;10062;51.052;13.756;2023-09-08T15:15:19;30.70;1.00
19805;DHT22;10062;51.052;13.756;2023-09-08T15:17:55;30.60;1.00
19805;DHT22;10062;51.052;13.756;2023-09-08T15:20:27;30.30;1.00
19805;DHT22;10062;51.052;13.756;2023-09-08T15:22:59;30.30;1.00
19805;DHT22;10062;51.052;13.756;2023-09-08T15:25:30;30.30;1.00
19805;DHT22;10062;51.052;13.756;2023-09-08T15:28:02;30.30;1.00
19805;DHT22;10062;51.052;13.756;2023-09-08T15:30:35;30.30;1.00
19805;DHT22;10062;51.052;13.756;2023-09-08T15:33:08;30.30;1.00
19805;DHT22;10062;51.052;13.756;2023-09-08T15:35:40;30.30;1.00
19805;DHT22;10062;51.052;13.756;2023-09-08T15:38:13;30.40;1.00
19805;DHT22;10062;51.052;13.756;2023-09-08T15:44:08;30.50;1.00
19805;DHT22;10062;51.052;13.756;2023-09-08T15:53:46;30.80;1.00
19805;DHT22;10062;51.052;13.756;2023-09-08T15:58:51;30.90;1.00
19805;DHT22;10062;51.052;13.756;2023-09-08T16:01:23;30.90;1.00
19805;DHT22;10062;51.052;13.756;2023-09-08T16:03:55;30.90;1.00
19805;DHT22;10062;51.052;13.756;2023-09-08T16:06:28;31.10;1.00
19805;DHT22;10062;51.052;13.756;2023-09-08T16:08:59;31.20;1.00
19805;DHT22;10062;51.052;13.756;2023-09-08T16:11:31;31.20;1.00
19805;DHT22;10062;51.052;13.756;2023-09-08T16:16:35;31.30;1.00
19805;DHT22;10062;51.052;13.756;2023-09-08T16:19:07;31.10;1.00
19805;DHT22;10062;51.052;13.756;2023-09-08T16:21:40;31.10;1.00
19805;DHT22;10062;51.052;13.756;2023-09-08T16:24:13;31.00;1.00
19805;DHT22;10062;51.052;13.756;2023-09-08T16:26:44;30.90;1.00
19805;DHT22;10062;51.052;13.756;2023-09-08T16:29:16;30.80;1.00
19805;DHT22;10062;51.052;13.756;2023-09-08T16:31:48;30.70;1.00
19805;DHT22;10062;51.052;13.756;2023-09-08T16:34:20;30.70;1.00
19805;DHT22;10062;51.052;13.756;2023-09-08T16:36:53;30.50;1.00
19805;DHT22;10062;51.052;13.756;2023-09-08T16:39:24;30.30;1.00
19805;DHT22;10062;51.052;13.756;2023-09-08T16:41:56;30.20;1.00
19805;DHT22;10062;51.052;13.756;2023-09-08T16:44:28;29.90;1.00
19805;DHT22;10062;51.052;13.756;2023-09-08T16:47:00;30.00;1.00
19805;DHT22;10062;51.052;13.756;2023-09-08T16:49:31;29.90;1.00
19805;DHT22;10062;51.052;13.756;2023-09-08T16:52:05;29.80;1.00
19805;DHT22;10062;51.052;13.756;2023-09-08T16:54:36;29.70;1.00
19805;DHT22;10062;51.052;13.756;2023-09-08T16:57:08;29.50;1.00
19805;DHT22;10062;51.052;13.756;2023-09-08T16:59:40;29.50;1.00
19805;DHT22;10062;51.052;13.756;2023-09-08T17:02:12;29.40;1.00
19805;DHT22;10062;51.052;13.756;2023-09-08T17:04:43;29.30;1.00
19805;DHT22;10062;51.052;13.756;2023-09-08T17:07:17;29.20;1.00
19805;DHT22;10062;51.052;13.756;2023-09-08T17:09:49;29.20;1.00
19805;DHT22;10062;51.052;13.756;2023-09-08T17:12:21;29.10;1.00
19805;DHT22;10062;51.052;13.756;2023-09-08T17:14:52;28.90;1.00
19805;DHT22;10062;51.052;13.756;2023-09-08T17:17:24;28.90;1.00
19805;DHT22;10062;51.052;13.756;2023-09-08T17:19:56;28.80;1.00
19805;DHT22;10062;51.052;13.756;2023-09-08T17:25:03;28.70;1.00
19805;DHT22;10062;51.052;13.756;2023-09-08T17:27:35;28.50;1.00
19805;DHT22;10062;51.052;13.756;2023-09-08T17:30:08;28.50;1.00
19805;DHT22;10062;51.052;13.756;2023-09-08T17:32:40;28.30;1.00
19805;DHT22;10062;51.052;13.756;2023-09-08T17:35:11;28.30;1.00
19805;DHT22;10062;51.052;13.756;2023-09-08T17:37:45;28.20;1.00
19805;DHT22;10062;51.052;13.756;2023-09-08T17:40:16;28.10;1.00
19805;DHT22;10062;51.052;13.756;2023-09-08T17:42:48;27.90;1.00
19805;DHT22;10062;51.052;13.756;2023-09-08T17:45:20;27.90;1.00
19805;DHT22;10062;51.052;13.756;2023-09-08T17:47:52;27.80;1.00
19805;DHT22;10062;51.052;13.756;2023-09-08T17:52:57;27.60;1.00
19805;DHT22;10062;51.052;13.756;2023-09-08T17:55:29;27.50;1.00
19805;DHT22;10062;51.052;13.756;2023-09-08T17:58:01;27.40;1.00
19805;DHT22;10062;51.052;13.756;2023-09-08T18:05:37;27.20;1.00
19805;DHT22;10062;51.052;13.756;2023-09-08T18:08:10;27.10;1.00
19805;DHT22;10062;51.052;13.756;2023-09-08T18:15:56;26.80;1.00
19805;DHT22;10062;51.052;13.756;2023-09-08T18:18:28;26.80;1.00
19805;DHT22;10062;51.052;13.756;2023-09-08T18:21:00;26.70;1.00
19805;DHT22;10062;51.052;13.756;2023-09-08T18:23:33;26.70;1.00
19805;DHT22;10062;51.052;13.756;2023-09-08T18:26:05;26.70;1.00
19805;DHT22;10062;51.052;13.756;2023-09-08T18:28:36;26.50;1.00
19805;DHT22;10062;51.052;13.756;2023-09-08T18:31:08;26.50;1.00
19805;DHT22;10062;51.052;13.756;2023-09-08T18:33:41;26.40;1.00
19805;DHT22;10062;51.052;13.756;2023-09-08T18:36:13;26.20;1.00
19805;DHT22;10062;51.052;13.756;2023-09-08T18:38:46;26.20;1.00
19805;DHT22;10062;51.052;13.756;2023-09-08T18:41:18;26.10;1.00
19805;DHT22;10062;51.052;13.756;2023-09-08T18:43:50;26.00;1.00
19805;DHT22;10062;51.052;13.756;2023-09-08T18:46:22;25.90;1.00
19805;DHT22;10062;51.052;13.756;2023-09-08T18:48:54;25.80;1.00
19805;DHT22;10062;51.052;13.756;2023-09-08T18:51:25;25.80;1.00
19805;DHT22;10062;51.052;13.756;2023-09-08T18:53:58;25.70;1.00
19805;DHT22;10062;51.052;13.756;2023-09-08T18:56:30;25.70;1.00
19805;DHT22;10062;51.052;13.756;2023-09-08T18:59:03;25.60;1.00
19805;DHT22;10062;51.052;13.756;2023-09-08T19:01:34;25.50;1.00
19805;DHT22;10062;51.052;13.756;2023-09-08T19:04:06;25.40;1.00
19805;DHT22;10062;51.052;13.756;2023-09-08T19:06:38;25.50;1.00
19805;DHT22;10062;51.052;13.756;2023-09-08T19:09:11;25.40;1.00
19805;DHT22;10062;51.052;13.756;2023-09-08T19:21:51;25.10;1.00
19805;DHT22;10062;51.052;13.756;2023-09-08T19:24:24;25.10;1.00
19805;DHT22;10062;51.052;13.756;2023-09-08T19:26:56;25.00;1.00
19805;DHT22;10062;51.052;13.756;2023-09-08T19:29:28;24.90;1.00
19805;DHT22;10062;51.052;13.756;2023-09-08T19:32:00;24.90;1.00
19805;DHT22;10062;51.052;13.756;2023-09-08T19:34:32;24.80;1.00
19805;DHT22;10062;51.052;13.756;2023-09-08T19:39:37;24.70;1.00
19805;DHT22;10062;51.052;13.756;2023-09-08T19:42:09;24.70;1.00
19805;DHT22;10062;51.052;13.756;2023-09-08T19:44:40;24.60;1.00
19805;DHT22;10062;51.052;13.756;2023-09-08T19:47:12;24.60;1.00
19805;DHT22;10062;51.052;13.756;2023-09-08T19:49:44;24.50;1.00
19805;DHT22;10062;51.052;13.756;2023-09-08T19:52:16;24.40;1.00
19805;DHT22;10062;51.052;13.756;2023-09-08T19:54:49;24.30;63.20
19805;DHT22;10062;51.052;13.756;2023-09-08T19:57:21;24.30;86.10
19805;DHT22;10062;51.052;13.756;2023-09-08T19:59:52;24.20;99.90
19805;DHT22;10062;51.052;13.756;2023-09-08T20:02:24;24.10;99.90
19805;DHT22;10062;51.052;13.756;2023-09-08T20:04:56;24.00;99.90
19805;DHT22;10062;51.052;13.756;2023-09-08T20:07:28;23.90;99.90
19805;DHT22;10062;51.052;13.756;2023-09-08T20:10:01;23.90;1.00
19805;DHT22;10062;51.052;13.756;2023-09-08T20:12:33;23.80;1.00
19805;DHT22;10062;51.052;13.756;2023-09-08T20:15:07;23.70;1.00
19805;DHT22;10062;51.052;13.756;2023-09-08T20:17:39;23.60;1.00
19805;DHT22;10062;51.052;13.756;2023-09-08T20:25:17;23.50;1.00
19805;DHT22;10062;51.052;13.756;2023-09-08T20:27:49;23.40;1.00
19805;DHT22;10062;51.052;13.756;2023-09-08T20:37:57;23.20;1.00
19805;DHT22;10062;51.052;13.756;2023-09-08T20:40:30;23.20;1.00
19805;DHT22;10062;51.052;13.756;2023-09-08T20:43:02;23.10;9.10
19805;DHT22;10062;51.052;13.756;2023-09-08T20:45:33;23.10;1.00
19805;DHT22;10062;51.052;13.756;2023-09-08T20:48:07;23.10;28.10
19805;DHT22;10062;51.052;13.756;2023-09-08T20:50:38;23.00;99.90
19805;DHT22;10062;51.052;13.756;2023-09-08T20:53:10;22.90;99.90
19805;DHT22;10062;51.052;13.756;2023-09-08T20:55:43;22.80;99.90
19805;DHT22;10062;51.052;13.756;2023-09-08T20:58:16;22.80;99.90
19805;DHT22;10062;51.052;13.756;2023-09-08T21:00:48;22.80;1.00
19805;DHT22;10062;51.052;13.756;2023-09-08T21:03:20;22.80;1.00
19805;DHT22;10062;51.052;13.756;2023-09-08T21:05:52;22.70;1.00
19805;DHT22;10062;51.052;13.756;2023-09-08T21:08:24;22.70;1.00
19805;DHT22;10062;51.052;13.756;2023-09-08T21:10:57;22.60;1.00
19805;DHT22;10062;51.052;13.756;2023-09-08T21:16:01;22.40;1.00
19805;DHT22;10062;51.052;13.756;2023-09-08T21:23:37;22.30;1.00
19805;DHT22;10062;51.052;13.756;2023-09-08T21:26:11;22.20;59.60
19805;DHT22;10062;51.052;13.756;2023-09-08T21:28:43;22.30;87.00
19805;DHT22;10062;51.052;13.756;2023-09-08T21:31:15;22.20;99.90
19805;DHT22;10062;51.052;13.756;2023-09-08T21:33:46;22.20;99.90
19805;DHT22;10062;51.052;13.756;2023-09-08T21:36:19;22.10;99.90
19805;DHT22;10062;51.052;13.756;2023-09-08T21:38:51;22.10;99.90